createdAt,value
2022-11-28T00:00:56.842Z,5.00
2022-11-28T00:01:56.875Z,4.80
2022-11-28T00:02:57.039Z,4.60
2022-11-28T00:03:56.759Z,4.30
2022-11-28T00:04:56.730Z,4.40
2022-11-28T00:05:56.706Z,5.10
2022-11-28T00:06:56.674Z,4.60
2022-11-28T00:07:56.677Z,4.60
2022-11-28T00:08:56.627Z,4.60
2022-11-28T00:09:56.595Z,4.70
2022-11-28T00:10:56.566Z,4.90
2022-11-28T00:11:56.537Z,4.90
2022-11-28T00:12:56.509Z,4.70
2022-11-28T00:13:56.483Z,4.40
2022-11-28T00:14:56.452Z,4.50
2022-11-28T00:15:56.494Z,4.80
2022-11-28T00:16:56.398Z,5.00
2022-11-28T00:17:56.370Z,5.10
2022-11-28T00:18:56.455Z,4.70
2022-11-28T00:19:56.314Z,4.60
2022-11-28T00:20:56.284Z,4.40
2022-11-28T00:21:56.257Z,4.70
2022-11-28T00:22:56.233Z,4.60
2022-11-28T00:23:56.201Z,4.90
2022-11-28T00:24:56.174Z,5.10
2022-11-28T00:25:56.146Z,4.80
2022-11-28T00:26:56.121Z,4.50
2022-11-28T00:27:56.088Z,4.90
2022-11-28T00:28:56.062Z,4.60
2022-11-28T00:29:56.033Z,4.90
2022-11-28T00:30:56.010Z,4.60
2022-11-28T00:31:56.030Z,4.60
2022-11-28T00:32:55.951Z,4.80
2022-11-28T00:33:55.920Z,4.70
2022-11-28T00:34:56.009Z,4.80
2022-11-28T00:35:55.865Z,4.50
2022-11-28T00:36:55.837Z,4.50
2022-11-28T00:37:55.809Z,4.90
2022-11-28T00:38:55.784Z,4.70
2022-11-28T00:39:55.753Z,5.00
2022-11-28T00:40:55.726Z,4.50
2022-11-28T00:41:55.698Z,4.80
2022-11-28T00:42:55.674Z,4.70
2022-11-28T00:43:55.643Z,5.00
2022-11-28T00:44:55.616Z,5.10
2022-11-28T00:45:55.671Z,4.80
2022-11-28T00:46:55.561Z,5.40
2022-11-28T00:47:55.532Z,4.80
2022-11-28T00:48:55.506Z,5.00
2022-11-28T00:49:55.476Z,5.00
2022-11-28T00:50:55.569Z,4.80
2022-11-28T00:51:55.416Z,5.20
2022-11-28T00:52:55.392Z,5.10
2022-11-28T00:53:55.366Z,5.00
2022-11-28T00:54:55.337Z,4.80
2022-11-28T00:55:55.310Z,4.90
2022-11-28T00:56:55.282Z,4.80
2022-11-28T00:57:55.279Z,4.70
2022-11-28T00:58:55.225Z,4.90
2022-11-28T00:59:55.195Z,4.70
2022-11-28T01:00:55.193Z,4.80
2022-11-28T01:01:55.172Z,5.40
2022-11-28T01:02:55.118Z,4.80
2022-11-28T01:03:55.088Z,4.60
2022-11-28T01:04:55.055Z,4.90
2022-11-28T01:05:55.030Z,4.70
2022-11-28T01:06:55.114Z,5.00
2022-11-28T01:07:55.011Z,5.00
2022-11-28T01:08:54.945Z,4.60
2022-11-28T01:09:54.916Z,4.90
2022-11-28T01:10:54.889Z,4.90
2022-11-28T01:11:54.859Z,5.10
2022-11-28T01:12:54.833Z,5.20
2022-11-28T01:13:54.808Z,4.50
2022-11-28T01:14:54.779Z,4.70
2022-11-28T01:15:54.790Z,5.00
2022-11-28T01:16:54.723Z,5.20
2022-11-28T01:17:54.691Z,4.70
2022-11-28T01:18:54.673Z,5.40
2022-11-28T01:19:54.637Z,4.90
2022-11-28T01:20:54.609Z,4.80
2022-11-28T01:21:54.579Z,4.30
2022-11-28T01:22:54.671Z,4.90
2022-11-28T01:23:54.525Z,5.30
2022-11-28T01:24:54.498Z,5.10
2022-11-28T01:25:54.469Z,4.90
2022-11-28T01:26:54.443Z,4.90
2022-11-28T01:27:54.410Z,4.90
2022-11-28T01:28:54.386Z,5.20
2022-11-28T01:29:54.356Z,4.90
2022-11-28T01:30:54.331Z,4.60
2022-11-28T01:31:54.363Z,4.90
2022-11-28T01:32:54.277Z,4.70
2022-11-28T01:33:54.243Z,4.70
2022-11-28T01:34:54.218Z,4.60
2022-11-28T01:35:54.190Z,4.70
2022-11-28T01:36:54.161Z,4.90
2022-11-28T01:37:54.133Z,4.80
2022-11-28T01:38:54.220Z,4.60
2022-11-28T01:39:54.077Z,4.80
2022-11-28T01:40:54.050Z,5.00
2022-11-28T01:41:54.021Z,5.60
2022-11-28T01:42:53.995Z,5.30
2022-11-28T01:43:53.964Z,5.00
2022-11-28T01:44:53.937Z,5.00
2022-11-28T01:45:53.909Z,4.50
2022-11-28T01:46:53.952Z,5.10
2022-11-28T01:47:53.874Z,4.90
2022-11-28T01:48:53.828Z,5.50
2022-11-28T01:49:53.804Z,5.20
2022-11-28T01:50:53.769Z,5.60
2022-11-28T01:51:53.740Z,5.30
2022-11-28T01:52:53.716Z,4.80
2022-11-28T01:53:53.685Z,5.10
2022-11-28T01:54:53.781Z,5.30
2022-11-28T01:55:53.630Z,5.10
2022-11-28T01:56:53.601Z,5.20
2022-11-28T01:57:53.573Z,5.30
2022-11-28T01:58:53.548Z,5.50
2022-11-28T01:59:53.518Z,4.90
2022-11-28T02:00:53.540Z,4.80
2022-11-28T02:01:53.536Z,4.90
2022-11-28T02:02:53.436Z,5.30
2022-11-28T02:03:53.405Z,5.30
2022-11-28T02:04:53.383Z,5.00
2022-11-28T02:05:53.349Z,5.20
2022-11-28T02:06:53.324Z,5.00
2022-11-28T02:07:53.353Z,5.20
2022-11-28T02:08:53.266Z,5.00
2022-11-28T02:09:53.240Z,5.00
2022-11-28T02:10:53.334Z,5.20
2022-11-28T02:11:53.183Z,5.00
2022-11-28T02:12:53.155Z,5.30
2022-11-28T02:13:53.128Z,5.60
2022-11-28T02:14:53.100Z,5.20
2022-11-28T02:15:53.197Z,4.90
2022-11-28T02:16:53.045Z,5.70
2022-11-28T02:17:53.019Z,4.80
2022-11-28T02:18:52.992Z,5.90
2022-11-28T02:19:52.961Z,5.50
2022-11-28T02:20:52.933Z,5.40
2022-11-28T02:21:52.907Z,4.90
2022-11-28T02:22:52.879Z,5.40
2022-11-28T02:23:52.847Z,5.00
2022-11-28T02:24:52.820Z,5.20
2022-11-28T02:25:52.794Z,5.10
2022-11-28T02:26:52.881Z,5.30
2022-11-28T02:27:52.734Z,4.70
2022-11-28T02:28:52.714Z,5.50
2022-11-28T02:29:52.681Z,5.10
2022-11-28T02:30:52.655Z,5.20
2022-11-28T02:31:52.777Z,5.50
2022-11-28T02:32:52.597Z,4.90
2022-11-28T02:33:52.572Z,5.40
2022-11-28T02:34:52.899Z,5.40
2022-11-28T02:35:52.514Z,5.70
2022-11-28T02:36:52.487Z,4.80
2022-11-28T02:37:52.459Z,5.20
2022-11-28T02:38:52.433Z,5.20
2022-11-28T02:39:52.401Z,5.20
2022-11-28T02:40:52.376Z,5.10
2022-11-28T02:41:52.348Z,5.50
2022-11-28T02:42:52.434Z,5.30
2022-11-28T02:43:52.290Z,5.50
2022-11-28T02:44:52.264Z,5.00
2022-11-28T02:45:52.235Z,5.00
2022-11-28T02:46:52.257Z,5.00
2022-11-28T02:47:52.180Z,6.20
2022-11-28T02:48:52.153Z,5.30
2022-11-28T02:49:52.126Z,5.10
2022-11-28T02:50:52.100Z,5.60
2022-11-28T02:51:52.069Z,5.20
2022-11-28T02:52:52.045Z,5.70
2022-11-28T02:53:52.015Z,5.70
2022-11-28T02:54:51.990Z,5.10
2022-11-28T02:55:51.962Z,5.30
2022-11-28T02:56:51.935Z,5.50
2022-11-28T02:57:51.902Z,5.50
2022-11-28T02:58:51.989Z,5.90
2022-11-28T02:59:51.854Z,5.70
2022-11-28T03:00:51.870Z,5.20
2022-11-28T03:01:51.860Z,5.40
2022-11-28T03:02:51.765Z,5.60
2022-11-28T03:03:51.736Z,5.10
2022-11-28T03:04:51.708Z,5.90
2022-11-28T03:05:51.679Z,5.70
2022-11-28T03:06:51.656Z,5.30
2022-11-28T03:07:51.678Z,5.50
2022-11-28T03:08:51.598Z,5.20
2022-11-28T03:09:51.575Z,5.20
2022-11-28T03:10:51.543Z,5.60
2022-11-28T03:11:51.512Z,5.50
2022-11-28T03:12:51.486Z,5.10
2022-11-28T03:13:51.459Z,5.30
2022-11-28T03:14:51.543Z,5.20
2022-11-28T03:15:51.474Z,5.10
2022-11-28T03:16:51.376Z,5.50
2022-11-28T03:17:51.347Z,5.00
2022-11-28T03:18:51.321Z,5.20
2022-11-28T03:19:51.292Z,5.70
2022-11-28T03:20:51.268Z,5.70
2022-11-28T03:21:51.239Z,5.20
2022-11-28T03:22:51.209Z,5.20
2022-11-28T03:23:51.181Z,5.50
2022-11-28T03:24:51.155Z,5.50
2022-11-28T03:25:51.132Z,5.10
2022-11-28T03:26:51.100Z,5.30
2022-11-28T03:27:51.067Z,4.90
2022-11-28T03:28:51.041Z,5.10
2022-11-28T03:29:51.014Z,5.20
2022-11-28T03:30:51.101Z,5.10
2022-11-28T03:31:51.003Z,4.90
2022-11-28T03:32:50.932Z,5.80
2022-11-28T03:33:50.905Z,5.50
2022-11-28T03:34:50.878Z,5.40
2022-11-28T03:35:50.848Z,4.90
2022-11-28T03:36:50.821Z,5.60
2022-11-28T03:37:50.794Z,5.20
2022-11-28T03:38:50.768Z,5.60
2022-11-28T03:39:50.738Z,5.60
2022-11-28T03:40:50.712Z,5.90
2022-11-28T03:41:50.682Z,5.50
2022-11-28T03:42:50.658Z,5.40
2022-11-28T03:43:50.627Z,5.30
2022-11-28T03:44:50.600Z,5.60
2022-11-28T03:45:50.572Z,5.40
2022-11-28T03:46:50.750Z,5.60
2022-11-28T03:47:50.521Z,5.70
2022-11-28T03:48:50.491Z,5.60
2022-11-28T03:49:50.468Z,5.90
2022-11-28T03:50:50.439Z,6.00
2022-11-28T03:51:50.407Z,6.00
2022-11-28T03:52:50.383Z,5.60
2022-11-28T03:53:50.351Z,5.70
2022-11-28T03:54:50.324Z,6.20
2022-11-28T03:55:50.355Z,5.60
2022-11-28T03:56:50.270Z,5.70
2022-11-28T03:57:50.241Z,5.20
2022-11-28T03:58:50.217Z,5.40
2022-11-28T03:59:50.187Z,6.20
2022-11-28T04:00:50.198Z,5.60
2022-11-28T04:01:50.139Z,5.90
2022-11-28T04:02:50.311Z,5.80
2022-11-28T04:03:50.074Z,6.10
2022-11-28T04:04:50.048Z,6.10
2022-11-28T04:05:50.018Z,5.70
2022-11-28T04:06:49.996Z,6.30
2022-11-28T04:07:49.981Z,6.20
2022-11-28T04:08:49.939Z,6.20
2022-11-28T04:09:49.909Z,6.60
2022-11-28T04:10:49.882Z,6.10
2022-11-28T04:11:49.854Z,6.00
2022-11-28T04:12:49.834Z,6.40
2022-11-28T04:13:49.796Z,6.20
2022-11-28T04:14:49.771Z,5.70
2022-11-28T04:15:49.742Z,6.00
2022-11-28T04:16:53.804Z,6.10
2022-11-28T04:17:49.689Z,6.00
2022-11-28T04:18:49.774Z,6.10
2022-11-28T04:19:49.635Z,6.30
2022-11-28T04:20:49.606Z,6.70
2022-11-28T04:21:49.578Z,6.60
2022-11-28T04:22:49.554Z,6.00
2022-11-28T04:23:49.526Z,6.10
2022-11-28T04:24:49.494Z,5.90
2022-11-28T04:25:49.467Z,6.70
2022-11-28T04:26:49.444Z,6.20
2022-11-28T04:27:49.409Z,6.70
2022-11-28T04:28:49.386Z,6.70
2022-11-28T04:29:49.354Z,6.60
2022-11-28T04:30:49.328Z,6.40
2022-11-28T04:31:49.382Z,6.50
2022-11-28T04:32:49.270Z,6.60
2022-11-28T04:33:49.245Z,7.00
2022-11-28T04:34:49.332Z,7.20
2022-11-28T04:35:49.188Z,6.50
2022-11-28T04:36:49.163Z,6.60
2022-11-28T04:37:49.135Z,6.70
2022-11-28T04:38:49.105Z,6.50
2022-11-28T04:39:49.079Z,6.50
2022-11-28T04:40:49.049Z,6.40
2022-11-28T04:41:49.025Z,7.20
2022-11-28T04:42:52.817Z,6.70
2022-11-28T04:43:48.968Z,6.20
2022-11-28T04:44:48.938Z,6.80
2022-11-28T04:45:48.943Z,7.30
2022-11-28T04:46:48.884Z,6.80
2022-11-28T04:47:48.857Z,6.50
2022-11-28T04:48:48.828Z,6.80
2022-11-28T04:49:48.801Z,6.90
2022-11-28T04:50:48.885Z,6.80
2022-11-28T04:51:48.745Z,6.50
2022-11-28T04:52:48.716Z,6.40
2022-11-28T04:53:48.694Z,6.60
2022-11-28T04:54:48.663Z,7.00
2022-11-28T04:55:48.660Z,7.40
2022-11-28T04:56:48.611Z,7.30
2022-11-28T04:57:51.742Z,7.20
2022-11-28T04:58:48.552Z,6.70
2022-11-28T04:59:48.523Z,7.10
2022-11-28T05:00:48.563Z,7.10
2022-11-28T05:01:48.519Z,7.20
2022-11-28T05:02:48.440Z,6.70
2022-11-28T05:03:48.413Z,7.20
2022-11-28T05:04:48.382Z,7.10
2022-11-28T05:05:48.358Z,6.90
2022-11-28T05:06:48.439Z,6.80
2022-11-28T05:07:48.401Z,6.90
2022-11-28T05:08:48.272Z,7.60
2022-11-28T05:09:48.248Z,6.90
2022-11-28T05:10:48.222Z,6.90
2022-11-28T05:11:48.195Z,6.80
2022-11-28T05:12:48.163Z,6.50
2022-11-28T05:13:48.136Z,6.50
2022-11-28T05:14:48.455Z,6.50
2022-11-28T05:15:48.195Z,7.10
2022-11-28T05:16:48.105Z,6.70
2022-11-28T05:17:48.028Z,6.40
2022-11-28T05:18:47.998Z,7.00
2022-11-28T05:19:47.970Z,6.70
2022-11-28T05:20:47.945Z,6.40
2022-11-28T05:21:47.914Z,6.30
2022-11-28T05:22:48.001Z,6.70
2022-11-28T05:23:47.857Z,6.30
2022-11-28T05:24:47.833Z,6.20
2022-11-28T05:25:47.805Z,6.70
2022-11-28T05:26:47.774Z,6.50
2022-11-28T05:27:47.748Z,6.20
2022-11-28T05:28:47.727Z,6.00
2022-11-28T05:29:52.111Z,6.30
2022-11-28T05:30:47.672Z,6.40
2022-11-28T05:31:47.744Z,6.10
2022-11-28T05:32:47.616Z,6.20
2022-11-28T05:33:47.599Z,6.30
2022-11-28T05:34:47.557Z,6.40
2022-11-28T05:35:47.528Z,6.30
2022-11-28T05:36:47.496Z,6.90
2022-11-28T05:37:47.470Z,6.40
2022-11-28T05:38:47.466Z,5.90
2022-11-28T05:39:47.417Z,6.30
2022-11-28T05:40:47.386Z,6.50
2022-11-28T05:41:47.360Z,6.10
2022-11-28T05:42:47.332Z,6.10
2022-11-28T05:43:47.306Z,6.30
2022-11-28T05:44:47.275Z,6.30
2022-11-28T05:45:47.347Z,6.70
2022-11-28T05:46:47.224Z,6.80
2022-11-28T05:47:47.195Z,6.90
2022-11-28T05:48:47.171Z,6.20
2022-11-28T05:49:47.137Z,6.30
2022-11-28T05:50:47.110Z,6.10
2022-11-28T05:51:47.083Z,6.60
2022-11-28T05:52:47.055Z,6.40
2022-11-28T05:53:47.028Z,7.20
2022-11-28T05:54:47.120Z,6.80
2022-11-28T05:55:46.975Z,6.50
2022-11-28T05:56:46.946Z,6.60
2022-11-28T05:57:46.919Z,6.90
2022-11-28T05:58:46.889Z,7.20
2022-11-28T05:59:46.862Z,6.90
2022-11-28T06:00:46.833Z,6.90
2022-11-28T06:01:46.839Z,6.50
2022-11-28T06:02:46.867Z,6.20
2022-11-28T06:03:46.751Z,6.60
2022-11-28T06:04:46.802Z,6.20
2022-11-28T06:05:46.757Z,7.60
2022-11-28T06:06:46.665Z,7.50
2022-11-28T06:07:46.703Z,7.60
2022-11-28T06:08:46.611Z,7.50
2022-11-28T06:09:46.584Z,6.50
2022-11-28T06:10:46.671Z,7.50
2022-11-28T06:11:46.558Z,7.10
2022-11-28T06:12:46.500Z,7.60
2022-11-28T06:13:46.472Z,8.00
2022-11-28T06:14:46.447Z,7.50
2022-11-28T06:15:46.419Z,8.40
2022-11-28T06:16:46.481Z,8.80
2022-11-28T06:17:46.366Z,9.00
2022-11-28T06:18:46.339Z,7.70
2022-11-28T06:19:46.311Z,8.10
2022-11-28T06:20:46.286Z,8.10
2022-11-28T06:21:46.252Z,8.40
2022-11-28T06:22:46.223Z,8.30
2022-11-28T06:23:46.199Z,8.10
2022-11-28T06:24:46.169Z,7.10
2022-11-28T06:25:46.141Z,7.20
2022-11-28T06:26:46.228Z,7.10
2022-11-28T06:27:46.088Z,6.80
2022-11-28T06:28:46.060Z,7.20
2022-11-28T06:29:46.031Z,6.80
2022-11-28T06:30:46.004Z,6.60
2022-11-28T06:31:46.049Z,6.70
2022-11-28T06:32:45.947Z,6.80
2022-11-28T06:33:45.919Z,6.80
2022-11-28T06:34:45.892Z,7.10
2022-11-28T06:35:45.871Z,6.90
2022-11-28T06:36:45.841Z,8.00
2022-11-28T06:37:45.811Z,7.50
2022-11-28T06:38:45.787Z,7.60
2022-11-28T06:39:45.756Z,7.50
2022-11-28T06:40:45.727Z,6.50
2022-11-28T06:41:45.702Z,7.40
2022-11-28T06:42:45.793Z,6.90
2022-11-28T06:43:45.645Z,7.00
2022-11-28T06:44:45.618Z,6.50
2022-11-28T06:45:45.652Z,7.10
2022-11-28T06:46:45.565Z,6.70
2022-11-28T06:47:45.537Z,7.20
2022-11-28T06:48:45.511Z,6.60
2022-11-28T06:49:45.596Z,7.10
2022-11-28T06:50:45.453Z,6.50
2022-11-28T06:51:45.423Z,7.30
2022-11-28T06:52:45.396Z,6.70
2022-11-28T06:53:45.369Z,6.80
2022-11-28T06:54:45.338Z,7.10
2022-11-28T06:55:45.311Z,6.80
2022-11-28T06:56:45.288Z,6.90
2022-11-28T06:57:45.258Z,7.30
2022-11-28T06:58:45.353Z,7.70
2022-11-28T06:59:45.375Z,7.50
2022-11-28T07:00:45.229Z,6.70
2022-11-28T07:01:45.356Z,6.70
2022-11-28T07:02:45.181Z,6.60
2022-11-28T07:03:45.098Z,6.90
2022-11-28T07:04:45.068Z,7.10
2022-11-28T07:05:45.106Z,7.60
2022-11-28T07:06:45.011Z,7.10
2022-11-28T07:07:53.762Z,7.00
2022-11-28T07:08:44.952Z,6.70
2022-11-28T07:09:45.291Z,6.70
2022-11-28T07:10:44.899Z,6.40
2022-11-28T07:11:44.870Z,6.70
2022-11-28T07:12:44.841Z,6.60
2022-11-28T07:13:44.814Z,6.70
2022-11-28T07:14:44.895Z,7.00
2022-11-28T07:15:44.759Z,6.70
2022-11-28T07:16:44.814Z,7.00
2022-11-28T07:17:44.708Z,6.60
2022-11-28T07:18:44.675Z,6.70
2022-11-28T07:19:46.374Z,6.80
2022-11-28T07:20:44.619Z,7.20
2022-11-28T07:21:44.602Z,6.80
2022-11-28T07:22:44.568Z,6.80
2022-11-28T07:23:44.538Z,6.70
2022-11-28T07:24:44.511Z,7.20
2022-11-28T07:25:44.483Z,7.40
2022-11-28T07:26:44.455Z,6.90
2022-11-28T07:27:44.428Z,7.30
2022-11-28T07:28:44.405Z,7.20
2022-11-28T07:29:44.666Z,6.90
2022-11-28T07:30:44.361Z,7.30
2022-11-28T07:31:44.364Z,7.20
2022-11-28T07:32:44.292Z,7.30
2022-11-28T07:33:44.261Z,7.50
2022-11-28T07:34:48.891Z,7.50
2022-11-28T07:35:44.206Z,7.00
2022-11-28T07:36:44.177Z,7.40
2022-11-28T07:37:44.151Z,7.50
2022-11-28T07:38:44.128Z,7.60
2022-11-28T07:39:44.464Z,7.60
2022-11-28T07:40:44.064Z,7.20
2022-11-28T07:41:44.046Z,7.60
2022-11-28T07:42:44.121Z,7.80
2022-11-28T07:43:43.983Z,7.70
2022-11-28T07:44:43.954Z,7.40
2022-11-28T07:45:59.955Z,8.10
2022-11-28T07:46:43.965Z,7.70
2022-11-28T07:47:44.020Z,8.10
2022-11-28T07:48:43.848Z,7.80
2022-11-28T07:49:44.352Z,7.70
2022-11-28T07:50:43.794Z,7.80
2022-11-28T07:51:43.765Z,7.60
2022-11-28T07:52:43.737Z,8.20
2022-11-28T07:53:43.712Z,7.70
2022-11-28T07:54:43.684Z,7.30
2022-11-28T07:55:43.671Z,7.70
2022-11-28T07:57:11.566Z,8.30
2022-11-28T07:57:43.620Z,7.30
2022-11-28T07:58:43.585Z,7.40
2022-11-28T07:59:43.955Z,7.70
2022-11-28T08:00:43.515Z,8.10
2022-11-28T08:01:43.530Z,8.10
2022-11-28T08:02:43.475Z,7.90
2022-11-28T08:03:43.435Z,7.40
2022-11-28T08:04:48.606Z,8.10
2022-11-28T08:05:43.378Z,7.90
2022-11-28T08:06:43.350Z,8.10
2022-11-28T08:07:43.394Z,9.00
2022-11-28T08:08:43.293Z,7.50
2022-11-28T08:09:43.517Z,8.10
2022-11-28T08:10:43.239Z,8.20
2022-11-28T08:11:43.214Z,7.90
2022-11-28T08:12:43.184Z,7.90
2022-11-28T08:13:43.161Z,8.10
2022-11-28T08:14:43.229Z,8.30
2022-11-28T08:15:43.103Z,7.80
2022-11-28T08:16:43.132Z,7.70
2022-11-28T08:17:43.047Z,7.90
2022-11-28T08:18:43.056Z,8.50
2022-11-28T08:19:42.990Z,7.90
2022-11-28T08:20:42.963Z,7.50
2022-11-28T08:21:42.938Z,7.90
2022-11-28T08:22:42.908Z,7.70
2022-11-28T08:23:42.884Z,7.40
2022-11-28T08:24:43.017Z,7.50
2022-11-28T08:25:42.827Z,8.10
2022-11-28T08:26:42.798Z,7.70
2022-11-28T08:27:42.771Z,8.30
2022-11-28T08:28:42.745Z,8.10
2022-11-28T08:29:43.085Z,7.80
2022-11-28T08:30:42.747Z,8.40
2022-11-28T08:31:42.660Z,7.60
2022-11-28T08:32:42.629Z,8.00
2022-11-28T08:33:42.608Z,8.30
2022-11-28T08:34:42.614Z,7.90
2022-11-28T08:35:42.549Z,7.90
2022-11-28T08:36:42.522Z,8.50
2022-11-28T08:37:42.495Z,8.20
2022-11-28T08:38:46.995Z,8.60
2022-11-28T08:39:42.669Z,7.90
2022-11-28T08:40:42.412Z,7.70
2022-11-28T08:41:42.390Z,7.70
2022-11-28T08:42:42.357Z,8.10
2022-11-28T08:43:42.330Z,7.90
2022-11-28T08:44:42.838Z,7.60
2022-11-28T08:45:42.302Z,7.70
2022-11-28T08:46:42.251Z,7.90
2022-11-28T08:47:42.220Z,7.90
2022-11-28T08:48:42.272Z,7.80
2022-11-28T08:49:42.651Z,8.00
2022-11-28T08:50:46.698Z,8.20
2022-11-28T08:51:42.118Z,7.80
2022-11-28T08:52:42.083Z,7.40
2022-11-28T08:53:44.974Z,7.90
2022-11-28T08:54:42.324Z,7.10
2022-11-28T08:55:42.105Z,8.40
2022-11-28T08:56:41.976Z,8.30
2022-11-28T08:57:41.947Z,8.00
2022-11-28T08:58:41.920Z,8.40
2022-11-28T08:59:42.207Z,7.80
2022-11-28T09:00:41.863Z,8.00
2022-11-28T09:01:41.983Z,8.10
2022-11-28T09:02:41.893Z,7.70
2022-11-28T09:03:41.946Z,8.20
2022-11-28T09:04:41.833Z,7.70
2022-11-28T09:05:41.796Z,8.10
2022-11-28T09:06:41.842Z,8.10
2022-11-28T09:07:41.788Z,8.10
2022-11-28T09:08:41.662Z,7.70
2022-11-28T09:09:41.622Z,8.00
2022-11-28T09:10:41.653Z,7.90
2022-11-28T09:11:41.615Z,7.90
2022-11-28T09:12:41.603Z,7.40
2022-11-28T09:13:41.520Z,7.50
2022-11-28T09:14:41.503Z,7.90
2022-11-28T09:15:41.505Z,8.20
2022-11-28T09:16:41.566Z,8.10
2022-11-28T09:17:41.444Z,8.20
2022-11-28T09:18:41.430Z,8.20
2022-11-28T09:19:41.791Z,8.20
2022-11-28T09:20:41.344Z,8.40
2022-11-28T09:21:41.354Z,8.20
2022-11-28T09:22:41.315Z,7.90
2022-11-28T09:23:41.384Z,7.80
2022-11-28T09:24:41.243Z,7.80
2022-11-28T09:25:41.305Z,7.60
2022-11-28T09:26:41.195Z,7.50
2022-11-28T09:27:41.190Z,7.70
2022-11-28T09:28:41.121Z,7.80
2022-11-28T09:29:41.531Z,7.70
2022-11-28T09:30:41.129Z,8.40
2022-11-28T09:31:45.941Z,8.30
2022-11-28T09:32:41.062Z,8.20
2022-11-28T09:33:40.994Z,7.90
2022-11-28T09:34:40.986Z,8.20
2022-11-28T09:35:40.923Z,8.80
2022-11-28T09:36:41.028Z,7.70
2022-11-28T09:37:40.847Z,8.70
2022-11-28T09:38:41.160Z,8.60
2022-11-28T09:39:57.355Z,8.20
2022-11-28T09:40:40.765Z,8.00
2022-11-28T09:41:40.737Z,7.50
2022-11-28T09:42:40.721Z,7.60
2022-11-28T09:43:40.775Z,8.10
2022-11-28T09:44:40.760Z,8.30
2022-11-28T09:45:40.721Z,7.60
2022-11-28T09:46:40.746Z,7.70
2022-11-28T09:47:40.653Z,7.80
2022-11-28T09:48:40.667Z,8.10
2022-11-28T09:49:41.528Z,7.90
2022-11-28T09:50:40.491Z,8.60
2022-11-28T09:51:40.471Z,8.20
2022-11-28T09:52:40.508Z,7.80
2022-11-28T09:53:40.432Z,9.00
2022-11-28T09:54:40.422Z,9.40
2022-11-28T09:55:40.367Z,9.70
2022-11-28T09:56:40.339Z,9.20
2022-11-28T09:57:40.338Z,10.00
2022-11-28T09:58:40.282Z,8.60
2022-11-28T09:59:40.698Z,9.70
2022-11-28T10:00:40.228Z,9.10
2022-11-28T10:01:40.207Z,9.10
2022-11-28T10:02:40.219Z,8.40
2022-11-28T10:03:40.235Z,8.80
2022-11-28T10:04:40.198Z,8.50
2022-11-28T10:05:40.096Z,9.30
2022-11-28T10:06:40.072Z,8.60
2022-11-28T10:07:40.121Z,8.60
2022-11-28T10:08:40.008Z,8.80
2022-11-28T10:09:40.420Z,8.50
2022-11-28T10:10:39.964Z,8.40
2022-11-28T10:11:39.930Z,8.20
2022-11-28T10:12:39.926Z,8.10
2022-11-28T10:14:05.970Z,8.90
2022-11-28T10:14:39.857Z,8.60
2022-11-28T10:15:39.818Z,8.90
2022-11-28T10:16:39.861Z,9.50
2022-11-28T10:17:39.768Z,9.50
2022-11-28T10:18:39.733Z,9.30
2022-11-28T10:19:53.888Z,9.00
2022-11-28T10:20:39.685Z,9.60
2022-11-28T10:21:39.643Z,10.20
2022-11-28T10:22:39.649Z,10.40
2022-11-28T10:23:39.617Z,10.70
2022-11-28T10:24:39.572Z,11.40
2022-11-28T10:25:39.541Z,9.50
2022-11-28T10:26:39.542Z,10.30
2022-11-28T10:27:39.480Z,10.60
2022-11-28T10:28:39.508Z,10.70
2022-11-28T10:29:39.431Z,11.60
2022-11-28T10:30:39.454Z,9.20
2022-11-28T10:31:39.376Z,9.50
2022-11-28T10:32:39.344Z,9.90
2022-11-28T10:33:39.318Z,9.60
2022-11-28T10:34:39.295Z,10.30
2022-11-28T10:35:39.262Z,9.90
2022-11-28T10:36:39.238Z,10.00
2022-11-28T10:37:39.209Z,9.90
2022-11-28T10:38:39.187Z,9.00
2022-11-28T10:39:39.156Z,9.20
2022-11-28T10:40:39.130Z,9.30
2022-11-28T10:41:39.114Z,9.90
2022-11-28T10:42:39.094Z,9.40
2022-11-28T10:43:39.049Z,10.10
2022-11-28T10:44:39.083Z,9.50
2022-11-28T10:45:38.999Z,9.30
2022-11-28T10:46:39.031Z,9.30
2022-11-28T10:47:38.938Z,10.20
2022-11-28T10:48:40.698Z,9.40
2022-11-28T10:49:38.883Z,9.40
2022-11-28T10:50:38.857Z,8.70
2022-11-28T10:51:38.828Z,9.20
2022-11-28T10:52:38.807Z,8.90
2022-11-28T10:53:38.776Z,8.70
2022-11-28T10:54:38.751Z,8.50
2022-11-28T10:55:38.721Z,8.80
2022-11-28T10:56:38.698Z,8.60
2022-11-28T10:57:38.668Z,9.40
2022-11-28T10:58:38.666Z,8.40
2022-11-28T10:59:38.613Z,8.50
2022-11-28T11:00:38.590Z,8.50
2022-11-28T11:01:38.723Z,8.60
2022-11-28T11:02:38.537Z,9.40
2022-11-28T11:03:38.507Z,9.20
2022-11-28T11:04:38.589Z,8.20
2022-11-28T11:05:38.456Z,7.70
2022-11-28T11:06:47.761Z,8.40
2022-11-28T11:07:38.434Z,8.30
2022-11-28T11:08:38.377Z,8.20
2022-11-28T11:09:38.354Z,8.10
2022-11-28T11:10:38.319Z,9.00
2022-11-28T11:11:38.291Z,8.10
2022-11-28T11:12:38.266Z,8.10
2022-11-28T11:13:38.236Z,7.80
2022-11-28T11:14:38.236Z,8.30
2022-11-28T11:15:38.229Z,8.50
2022-11-28T11:16:38.216Z,8.20
2022-11-28T11:17:38.135Z,8.80
2022-11-28T11:18:38.103Z,8.30
2022-11-28T11:19:38.074Z,8.40
2022-11-28T11:20:38.051Z,8.30
2022-11-28T11:21:38.021Z,8.00
2022-11-28T11:22:37.998Z,8.30
2022-11-28T11:23:38.608Z,7.80
2022-11-28T11:24:37.941Z,7.60
2022-11-28T11:25:37.912Z,7.90
2022-11-28T11:26:37.885Z,7.50
2022-11-28T11:27:37.859Z,8.00
2022-11-28T11:28:37.831Z,8.30
2022-11-28T11:29:37.803Z,7.70
2022-11-28T11:30:37.834Z,8.00
2022-11-28T11:31:37.750Z,7.90
2022-11-28T11:32:37.724Z,7.60
2022-11-28T11:33:37.696Z,7.50
2022-11-28T11:34:37.671Z,8.40
2022-11-28T11:35:37.643Z,8.10
2022-11-28T11:36:37.620Z,8.10
2022-11-28T11:37:37.596Z,8.20
2022-11-28T11:38:38.172Z,8.40
2022-11-28T11:39:37.534Z,7.60
2022-11-28T11:40:37.510Z,8.10
2022-11-28T11:41:37.482Z,7.80
2022-11-28T11:42:37.457Z,8.40
2022-11-28T11:43:37.427Z,8.00
2022-11-28T11:44:37.403Z,8.80
2022-11-28T11:45:37.432Z,8.00
2022-11-28T11:46:37.491Z,8.30
2022-11-28T11:47:37.321Z,8.50
2022-11-28T11:48:37.292Z,9.20
2022-11-28T11:49:37.270Z,8.30
2022-11-28T11:50:37.244Z,7.90
2022-11-28T11:51:39.475Z,8.40
2022-11-28T11:52:37.185Z,8.30
2022-11-28T11:53:37.158Z,8.60
2022-11-28T11:54:37.132Z,8.20
2022-11-28T11:55:37.103Z,7.90
2022-11-28T11:56:37.078Z,8.50
2022-11-28T11:57:37.049Z,8.70
2022-11-28T11:58:37.023Z,8.30
2022-11-28T11:59:37.001Z,7.70
2022-11-28T12:00:37.082Z,8.70
2022-11-28T12:01:36.942Z,8.60
2022-11-28T12:02:37.159Z,8.40
2022-11-28T12:03:37.096Z,8.60
2022-11-28T12:04:46.313Z,8.70
2022-11-28T12:05:52.721Z,8.80
2022-11-28T12:06:36.823Z,9.20
2022-11-28T12:07:36.852Z,8.50
2022-11-28T12:08:36.757Z,8.40
2022-11-28T12:09:36.725Z,8.50
2022-11-28T12:10:36.702Z,9.40
2022-11-28T12:11:36.675Z,8.50
2022-11-28T12:12:36.649Z,8.90
2022-11-28T12:13:36.617Z,8.50
2022-11-28T12:14:36.601Z,8.30
2022-11-28T12:15:36.619Z,8.90
2022-11-28T12:16:36.623Z,8.40
2022-11-28T12:17:57.164Z,8.50
2022-11-28T12:18:36.509Z,9.40
2022-11-28T12:19:36.475Z,11.00
2022-11-28T12:20:36.432Z,10.20
2022-11-28T12:21:36.403Z,9.70
2022-11-28T12:22:36.380Z,9.40
2022-11-28T12:23:36.351Z,9.60
2022-11-28T12:24:36.326Z,10.00
2022-11-28T12:25:36.296Z,9.10
2022-11-28T12:26:36.273Z,9.70
2022-11-28T12:27:36.247Z,8.50
2022-11-28T12:28:36.223Z,9.20
2022-11-28T12:29:36.191Z,8.90
2022-11-28T12:30:39.113Z,10.20
2022-11-28T12:31:36.184Z,10.30
2022-11-28T12:32:36.107Z,11.20
2022-11-28T12:33:36.098Z,10.40
2022-11-28T12:34:36.076Z,11.40
2022-11-28T12:35:36.027Z,18.20
2022-11-28T12:36:36.008Z,14.90
2022-11-28T12:38:02.592Z,20.50
2022-11-28T12:38:35.953Z,20.20
2022-11-28T12:39:35.924Z,17.60
2022-11-28T12:40:35.893Z,19.10
2022-11-28T12:41:35.865Z,18.90
2022-11-28T12:42:35.848Z,13.70
2022-11-28T12:43:35.814Z,11.30
2022-11-28T12:44:35.785Z,10.70
2022-11-28T12:45:35.758Z,11.00
2022-11-28T12:46:35.775Z,10.00
2022-11-28T12:47:35.706Z,9.70
2022-11-28T12:48:35.676Z,10.50
2022-11-28T12:49:35.652Z,10.30
2022-11-28T12:50:35.650Z,9.80
2022-11-28T12:51:35.596Z,10.60
2022-11-28T12:52:35.578Z,10.20
2022-11-28T12:53:35.544Z,10.10
2022-11-28T12:54:35.517Z,10.90
2022-11-28T12:55:35.499Z,11.00
2022-11-28T12:56:35.458Z,9.70
2022-11-28T12:57:35.434Z,12.40
2022-11-28T12:58:35.409Z,11.30
2022-11-28T12:59:35.385Z,12.90
2022-11-28T13:00:35.366Z,11.80
2022-11-28T13:01:35.450Z,10.90
2022-11-28T13:02:35.510Z,13.30
2022-11-28T13:03:35.368Z,11.30
2022-11-28T13:04:35.245Z,13.60
2022-11-28T13:05:35.219Z,12.00
2022-11-28T13:06:35.213Z,14.20
2022-11-28T13:07:35.186Z,12.60
2022-11-28T13:08:35.136Z,13.30
2022-11-28T13:09:35.212Z,11.20
2022-11-28T13:10:35.082Z,11.40
2022-11-28T13:11:35.057Z,10.30
2022-11-28T13:12:35.046Z,10.00
2022-11-28T13:13:35.004Z,10.10
2022-11-28T13:14:34.974Z,11.10
2022-11-28T13:15:34.947Z,13.20
2022-11-28T13:16:35.015Z,11.00